Weather observations for the past three days for
Bowman Regional Airport
Metric (Imperial)
Date Time (mdt) Wind (kph) Vis. (km) Weather Sky Cond. Temperature (ºC) Relative Humidity Wind Chill (°C) Heat Index (°C) Pressure Precipitation (cm)
Air Dwpt 6 hour altimeter (cm) sea level (mb) 1 hr 3 hr 6 hr
Max. Min.
06 10:15 E 24 G 39 16.09 Fair CLR 28 19 58% 29 76.1 0.0
06 09:55 E 20 16.09 Fair CLR 26 21 74% 27 76.1 0.0
06 09:35 E 20 G 31 16.09 Fair CLR 25 21 79% 26 76.1 0.0
06 09:15 E 26 16.09 Fair CLR 24 21 83% 24 76.1 0.0
06 08:55 E 20 16.09 Fair CLR 24 21 83% 24 76.12 0.0
06 08:35 NE 17 16.09 Fair CLR 22 21 94% 76.15 0.0
06 08:15 NE 19 16.09 Fair CLR 20 20 100% 76.17 0.0
06 07:55 N 11 16.09 Fair CLR 19 19 100% 76.17 0.0
06 07:35 N 13 16.09 Fair CLR 18 18 100% 76.17 0.0
06 07:15 S 6 16.09 Fair CLR 18 18 100% 76.15 0.0
06 06:55 S 9 16.09 Fair CLR 18 18 100% 76.15 0.0
06 06:35 SE 15 16.09 Fair CLR 16 16 100% 76.12 0.0
06 06:15 E 19 16.09 Fair CLR 16 16 100% 76.1 0.0
06 05:55 E 19 16.09 Fair CLR 17 17 100% 76.12 0.0
06 05:35 NE 9 G 19 16.09 Fair CLR 17 17 100% 76.12 0.0
06 05:15 NE 15 16.09 Fair CLR 17 17 100% 76.12 0.0
06 04:55 E 15 16.09 Thunderstorm in Vicinity CLR 17 17 100% 76.12 0.0
06 04:35 NE 9 16.09 Fair CLR 17 17 100% 76.1 0.0
06 04:15 Vrbl 9 16.09 Fair CLR 18 18 100% 76.1 0.0
06 03:55 S 7 16.09 Fair CLR 18 18 100% 76.05 0.0
06 03:35 Calm 16.09 Fair CLR 18 18 100% 76.07 0.0
06 03:15 SE 11 16.09 Fair CLR 18 18 100% 76.07 0.0
06 02:55 E 9 16.09 Fair CLR 20 20 100% 76.07 0.0
06 02:35 Calm 16.09 Fair CLR 18 18 100% 76.07 0.0
06 02:15 S 7 16.09 Fair CLR 19 19 100% 76.07 0.0
06 01:55 Calm 16.09 Fair CLR 19 19 100% 76.07 0.0
06 01:35 SE 7 16.09 Fair CLR 19 19 100% 76.1 0.0
06 01:15 Calm 16.09 Fair CLR 18 18 100% 76.07 0.0
06 00:55 S 9 16.09 Fair CLR 20 19 94% 76.07 0.0
06 00:35 Calm 16.09 Fair CLR 20 19 94% 76.1 0.0
06 00:15 S 11 16.09 Fair CLR 20 19 94% 76.12 0.0
05 23:55 SE 7 16.09 Fair CLR 20 19 94% 76.12 0.0
05 23:35 S 9 16.09 Fair CLR 20 19 94% 76.12 0.0
05 23:15 S 7 G 22 16.09 Fair CLR 21 18 83% 76.12 0.0
05 22:55 S 17 16.09 Fair CLR 21 18 83% 76.15 0.0
05 22:35 S 20 16.09 Fair CLR 21 18 83% 76.15 0.0
05 22:15 S 20 16.09 Fair CLR 22 18 78% 76.15 0.0
05 21:55 SE 20 16.09 Fair CLR 23 17 69% 76.15 0.0
05 21:35 SE 13 16.09 Fair CLR 23 13 53% 76.15 0.0
05 21:15 SE 11 16.09 Fair CLR 26 11 39% 26 76.1 0.0
05 20:55 Calm 16.09 Fair CLR 27 11 37% 27 76.1 0.0
05 20:35 NE 6 16.09 Fair CLR 26 11 39% 26 76.07 0.0
05 20:15 Calm 16.09 Fair CLR 26 12 42% 26 76.05 0.0
05 19:55 S 11 16.09 Fair CLR 28 10 32% 27 76.05 0.0
05 19:35 S 13 16.09 Fair CLR 28 11 35% 27 76.05 0.0
05 19:15 S 15 16.09 Fair CLR 28 12 37% 27 76.05 0.0
05 18:55 S 11 16.09 Fair CLR 29 13 37% 28 76.05 0.0
05 18:35 S 13 16.09 Fair CLR 30 13 35% 29 76.05 0.0
05 18:15 Calm 16.09 Fair CLR 33 10 24% 31 76.02 0.0
05 17:15 Calm 16.09 Fair CLR 34 10 23% 32 76 0.0
05 16:55 W 11 16.09 Fair CLR 34 10 23% 32 75.97 0.0
05 16:35 Calm 16.09 Fair CLR 34 10 23% 32 76 0.0
05 15:35 NW 9 16.09 Fair CLR 34 12 26% 33 76.02 0.0
05 15:15 Vrbl 9 G 20 16.09 Fair CLR 33 12 28% 32 76.05 0.0
05 14:55 Vrbl 6 16.09 Fair CLR 33 11 26% 31 76.05 0.0
05 14:35 W 13 16.09 Fair CLR 33 12 28% 32 76.05 0.0
05 14:15 Vrbl 9 G 24 16.09 Fair CLR 33 11 26% 31 76.02 0.0
05 13:55 W 15 16.09 Fair CLR 32 12 29% 31 76.05 0.0
05 11:55 SW 19 G 30 16.09 Fair CLR 28 12 37% 27 76.05 0.0
05 11:35 SW 20 G 30 16.09 Fair CLR 27 13 42% 27 76.07 0.0
05 11:15 SW 20 16.09 Fair CLR 26 13 45% 26 76.07 0.0
05 10:55 S 13 16.09 Fair CLR 25 14 51% 26 76.07 0.0
05 10:35 SW 13 16.09 Fair CLR 24 14 54% 25 76.07 0.0
05 10:15 S 17 16.09 Fair CLR 24 16 61% 25 76.07 0.0
05 09:55 SW 19 16.09 Fair CLR 22 18 78% 76.07 0.0
05 09:35 SW 13 16.09 Fair CLR 22 19 83% 76.07 0.0
05 09:15 S 9 16.09 Mostly Cloudy BKN004 20 20 100% 76.07 0.0
05 08:55 S 9 6.44 Fog/Mist OVC003 19 19 100% 76.05 0.0
05 08:35 SE 9 0.80 Fog OVC002 18 18 100% 76.05 0.0
05 08:15 SE 9 0.24 Fog OVC003 18 18 100% 76.05 0.0
05 07:55 SE 13 12.87 A Few Clouds FEW003 18 18 100% 76.02 0.0
05 07:35 S 7 2.41 Fog/Mist CLR 17 17 100% 76 0.0
05 07:15 SE 15 0.24 Fog VV000 16 16 100% 75.97 0.0
05 06:55 SE 17 0.24 Fog BKN001 15 15 100% 75.9 0.0
05 05:35 S 9 14.48 Fair CLR 17 17 100% 75.84 0.0
05 05:15 Calm 16.09 Fair CLR 17 17 100% 75.82 0.0
05 04:55 SE 7 14.48 Fair CLR 17 17 100% 75.82 0.0
05 04:35 SE 15 16.09 Fair CLR 17 17 100% 75.79 0.0
05 04:15 SE 9 16.09 Fair CLR 17 17 100% 75.82 0.0
05 03:55 S 13 16.09 Fair CLR 18 18 100% 75.82 0.0
05 03:35 S 17 16.09 Fair CLR 19 19 100% 75.79 0.0
05 03:15 SE 17 16.09 Fair CLR 19 19 100% 75.79 0.0
05 02:55 SE 19 G 28 16.09 Fair CLR 19 19 100% 75.82 0.0
05 02:35 SE 26 16.09 Fair CLR 20 20 100% 75.82 0.0
05 02:15 SE 22 16.09 Fair CLR 20 20 100% 75.82 0.0
05 01:55 SE 20 16.09 Fair CLR 20 20 100% 75.82 0.0
05 01:35 SE 22 16.09 Fair CLR 20 20 100% 75.82 0.0
05 01:15 SE 22 16.09 Fair CLR 20 20 100% 75.82 0.0
05 00:55 SE 19 16.09 Fair CLR 20 20 100% 75.82 0.0
05 00:35 SE 20 16.09 Fair CLR 21 21 100% 75.82 0.0
05 00:15 SE 22 G 31 16.09 Fair CLR 21 21 100% 75.79 0.0
04 23:55 SE 26 16.09 Fair CLR 22 21 94% 75.79 0.0
04 23:35 SE 30 16.09 Fair CLR 22 21 94% 75.79 0.0
04 23:15 SE 33 G 43 16.09 Fair and Breezy CLR 23 21 89% 75.79 0.0
04 22:55 SE 31 16.09 Fair CLR 23 20 83% 75.79 0.0
04 22:35 SE 30 16.09 Fair CLR 23 20 83% 75.79 0.0
04 22:15 SE 31 G 41 16.09 Fair CLR 24 19 74% 25 75.79 0.0
04 21:55 SE 30 16.09 Fair CLR 24 18 69% 25 75.82 0.0
04 21:35 SE 30 G 43 16.09 Fair CLR 24 17 65% 25 75.82 0.0
04 21:15 SE 26 16.09 Fair CLR 25 16 57% 26 75.82 0.0
04 20:55 SE 31 G 44 16.09 Fair CLR 26 15 51% 27 75.82 0.0
04 20:35 SE 30 G 39 16.09 Fair CLR 26 13 45% 26 75.79 0.0
04 20:15 SE 31 16.09 Fair CLR 27 12 39% 27 75.77 0.0
04 19:55 SE 33 16.09 Fair and Breezy CLR 28 11 35% 27 75.77 0.0
04 19:35 SE 31 G 41 16.09 Fair CLR 29 11 33% 28 75.74 0.0
04 19:15 SE 31 G 43 16.09 Fair CLR 30 12 33% 29 75.74 0.0
04 18:55 SE 35 G 48 16.09 Fair and Breezy CLR 31 12 31% 30 75.74 0.0
04 18:35 SE 35 G 48 16.09 Fair and Breezy CLR 32 13 31% 31 75.72 0.0
04 17:55 S 37 G 50 16.09 Fair and Breezy CLR 33 12 28% 32 75.72 0.0
04 17:35 S 46 G 59 16.09 Fair and Windy CLR 34 11 24% 32 75.69 0.0
04 17:15 S 39 G 57 16.09 Fair and Breezy CLR 35 10 22% 33 75.69 0.0
04 16:55 S 39 G 56 16.09 Fair and Breezy CLR 35 11 23% 33 75.69 0.0
04 16:35 S 46 G 61 16.09 Fair and Windy CLR 35 11 23% 33 75.69 0.0
04 16:15 S 43 G 67 16.09 A Few Clouds and Windy FEW120 35 11 23% 33 75.69 0.0
04 15:55 S 41 G 59 16.09 Partly Cloudy and Breezy SCT120 34 11 24% 32 75.69 0.0
04 15:35 SE 33 G 50 16.09 A Few Clouds and Breezy FEW110 34 14 30% 33 75.69 0.0
04 15:15 SE 39 G 52 16.09 Fair and Breezy CLR 34 15 32% 34 75.72 0.0
04 14:55 SE 33 G 44 16.09 Fair and Breezy CLR 34 16 34% 34 75.72 0.0
04 14:35 SE 35 G 48 16.09 Fair and Breezy CLR 33 15 34% 33 75.74 0.0
04 14:15 SE 33 G 43 16.09 Fair and Breezy CLR 33 16 36% 33 75.77 0.0
04 13:55 S 24 G 39 16.09 Fair CLR 32 16 38% 32 75.79 0.0
04 13:35 S 26 16.09 Fair CLR 31 16 40% 31 75.82 0.0
04 13:15 S 24 G 33 16.09 Fair CLR 30 16 43% 30 75.84 0.0
04 12:55 S 28 G 39 16.09 Fair CLR 30 16 43% 30 75.87 0.0
04 12:35 S 26 16.09 Fair CLR 29 17 48% 29 75.87 0.0
04 12:15 SE 22 G 33 16.09 Fair CLR 28 17 51% 29 75.9 0.0
04 11:55 S 26 G 37 16.09 Fair CLR 27 18 58% 28 75.9 0.0
04 11:35 S 24 G 41 16.09 Fair CLR 26 18 61% 27 75.92 0.0
04 11:15 S 22 G 37 16.09 Fair CLR 25 18 65% 26 75.95 0.0
04 10:55 S 31 16.09 Fair CLR 25 18 65% 26 75.95 0.0
04 10:35 SE 24 G 37 16.09 Fair CLR 24 19 74% 25 75.97 0.0
04 09:35 SE 39 G 52 16.09 A Few Clouds and Breezy FEW006 20 20 100% 75.92 0.0
04 09:15 SE 30 G 50 16.09 Mostly Cloudy BKN003 18 18 100% 75.92 0.0
04 08:55 SE 41 0.80 Fog/Mist and Breezy OVC003 18 18 100% 75.92 0.0
04 08:35 SE 24 G 35 0.80 Fog/Mist OVC003 18 18 100% 75.97 0.0
04 08:15 SE 24 0.24 Fog OVC002 18 18 100% 75.97 0.0
04 07:55 SE 19 0.24 Fog OVC003 17 17 100% 75.97 0.0
04 07:35 SE 13 1.21 Fog/Mist OVC003 15 15 100% 75.95 0.0
04 07:15 E 9 0.24 Fog OVC001 13 13 100% 75.95 0.0
04 06:55 E 15 0.80 Fog VV005 13 13 100% 75.95 0.0
04 06:35 E 13 2.82 Fog/Mist CLR 14 14 100% 75.92 0.0
04 06:15 E 15 2.01 Fog/Mist CLR 13 13 100% 75.92 0.0
04 05:55 E 17 6.44 Fog/Mist CLR 13 13 100% 75.95 0.0
04 05:35 SE 17 4.83 Fog/Mist CLR 13 13 100% 75.95 0.0
04 05:15 SE 15 9.66 Fog/Mist CLR 13 13 100% 75.95 0.0
04 04:55 SE 19 16.09 Fair CLR 15 15 100% 75.95 0.0
04 04:35 SE 19 16.09 Fair CLR 14 14 100% 75.95 0.0
04 04:15 SE 17 16.09 Fair CLR 14 14 100% 75.95 0.0
04 03:55 SE 15 16.09 Fair CLR 14 14 100% 75.97 0.0
04 03:35 SE 11 16.09 Fair CLR 14 14 100% 75.97 0.0
04 03:15 SE 11 16.09 Fair CLR 14 14 100% 75.97 0.0
04 02:35 E 15 16.09 Fair CLR 14 14 100% 75.97 0.0
04 02:15 E 13 16.09 Fair CLR 14 14 100% 75.97 0.0
04 01:55 E 11 16.09 Fair CLR 15 15 100% 75.95 0.0
04 01:35 E 6 16.09 Fair CLR 16 16 100% 75.95 0.0
04 01:15 E 11 16.09 Fair CLR 16 16 100% 75.95 0.0
04 00:55 E 9 16.09 Fair CLR 16 16 100% 75.95 0.0
04 00:35 NE 9 16.09 Fair CLR 17 16 94% 75.95 0.0
04 00:15 E 9 16.09 Fair CLR 17 16 94% 75.95 0.0
03 23:55 Calm 16.09 Fair CLR 17 16 94% 75.95 0.0
03 23:35 Calm 16.09 Fair CLR 17 16 94% 75.92 0.0
03 23:15 E 9 16.09 Fair CLR 18 16 88% 75.9 0.0
03 22:55 NE 7 16.09 Fair CLR 17 16 94% 75.9 0.0
03 22:35 E 13 16.09 Fair CLR 18 16 88% 75.9 0.0
03 22:15 E 15 16.09 Fair CLR 18 16 88% 75.92 0.0
03 21:55 E 13 16.09 Fair CLR 18 16 88% 75.92 0.0
03 21:35 NE 9 16.09 Fair CLR 18 17 94% 75.9 0.0
03 21:15 E 15 16.09 Fair CLR 20 17 83% 75.9 0.0
03 20:55 E 15 16.09 Fair CLR 20 17 83% 75.9 0.0
03 20:35 SE 13 16.09 Fair CLR 20 17 83% 75.87 0.0
03 20:15 SE 13 16.09 Fair CLR 20 17 83% 75.84 0.0
03 19:55 E 15 16.09 Fair CLR 22 16 69% 75.82 0.0
03 19:35 E 17 16.09 Fair CLR 22 15 65% 75.82 0.0
03 19:15 E 19 16.09 Fair CLR 25 13 47% 26 75.77 0.0
03 18:55 E 9 16.09 Fair CLR 27 5 24% 26 75.77 0.0
03 18:35 N 11 16.09 Fair CLR 28 4 21% 27 75.74 0.0
03 18:15 N 11 16.09 Fair CLR 30 5 20% 28 75.74 0.0
03 17:55 NW 7 16.09 Fair CLR 30 4 19% 28 75.74 0.0
03 17:35 W 17 16.09 Fair CLR 31 4 18% 29 75.74 0.0
03 17:15 NW 13 G 30 16.09 A Few Clouds FEW110 31 4 18% 29 75.72 0.0
03 16:55 W 17 G 28 16.09 A Few Clouds FEW110 31 4 18% 29 75.72 0.0
03 16:35 NW 17 16.09 A Few Clouds FEW110 30 5 20% 28 75.72 0.0
03 16:15 SW 11 16.09 A Few Clouds FEW110 31 7 22% 29 75.72 0.0
03 15:55 W 9 16.09 A Few Clouds FEW120 29 8 27% 28 75.72 0.0
03 15:35 NW 24 16.09 Partly Cloudy FEW100 SCT120 30 8 25% 28 75.72 0.0
03 15:15 W 20 16.09 Partly Cloudy SCT100 SCT120 31 7 22% 29 75.69 0.0
03 14:55 SW 19 16.09 A Few Clouds FEW100 31 7 22% 29 75.69 0.0
03 14:35 Vrbl 6 G 22 16.09 Fair CLR 30 8 25% 28 75.72 0.0
03 14:15 NW 9 G 20 16.09 Fair CLR 30 8 25% 28 75.72 0.0
03 13:55 W 13 G 24 16.09 Fair CLR 30 9 27% 29 75.72 0.0
03 13:35 W 17 G 26 16.09 Fair CLR 29 8 27% 28 75.69 0.0
03 13:15 NW 11 16.09 Fair CLR 29 10 31% 28 75.69 0.0
03 12:55 NE 17 16.09 Fair CLR 28 10 32% 27 75.67 0.0
03 12:35 NE 13 G 24 16.09 Fair CLR 27 12 39% 27 75.67 0.0
03 12:15 NE 22 G 31 16.09 Fair CLR 25 15 54% 26 75.67 0.0
03 11:55 NE 22 G 33 16.09 Fair CLR 24 15 57% 25 75.69 0.0
03 11:35 NE 28 G 39 16.09 Fair CLR 23 16 65% 75.69 0.0
03 11:15 NE 24 G 35 16.09 Fair CLR 21 18 83% 75.74 0.0
03 10:55 N 33 16.09 A Few Clouds and Breezy FEW012 20 18 88% 75.77 0.0
03 10:35 N 35 16.09 Mostly Cloudy and Breezy BKN010 18 18 100% 75.77 0.0
Date Time (mdt) Wind (kph) Vis. (km) Weather Sky Cond. Air Dwpt Max. Min. Relative Humidity Wind Chill (°C) Heat Index (°C) altimeter (cm) sea level (mb) 1 hr 3 hr 6 hr
6 hour
Temperature (ºC) Pressure Precipitation (cm)